Terminal Aerodrome Forecast
Issued by NWS

Home | Current Version | Previous Version | Text Only | Print | Product List | Glossary On
Versions: 1 2 3 4 5 6 7 8 9 10 11 12 13 14 15 16 17
000
FTUS43 KAPX 251100
TAFAPN
TAF
KAPN 251120Z 2512/2612 20003KT P6SM SCT250
     FM251500 19007KT P6SM SCT060 BKN200
     FM260100 VRB03KT P6SM VCSH SCT050 BKN090=

USA.gov is the U.S. government's official web portal to all federal, state and local government web resources and services.